createdAt,value
2017-04-07T00:00:09.047Z,1035.65
2017-04-07T00:01:09.041Z,1035.6
2017-04-07T00:02:09.029Z,1035.65
2017-04-07T00:03:09.019Z,1035.56
2017-04-07T00:04:09.012Z,1035.56
2017-04-07T00:05:09.001Z,1035.53
2017-04-07T00:06:08.992Z,1035.51
2017-04-07T00:07:08.983Z,1035.49
2017-04-07T00:08:08.974Z,1035.52
2017-04-07T00:09:08.964Z,1035.54
2017-04-07T00:10:08.955Z,1035.53
2017-04-07T00:11:08.946Z,1035.58
2017-04-07T00:12:08.937Z,1035.55
2017-04-07T00:13:08.929Z,1035.56
2017-04-07T00:14:08.920Z,1035.52
2017-04-07T00:15:08.911Z,1035.56
2017-04-07T00:16:08.901Z,1035.54
2017-04-07T00:17:08.893Z,1035.55
2017-04-07T00:18:08.883Z,1035.63
2017-04-07T00:19:08.874Z,1035.64
2017-04-07T00:20:08.864Z,1035.67
2017-04-07T00:21:08.855Z,1035.67
2017-04-07T00:22:08.846Z,1035.67
2017-04-07T00:23:08.837Z,1035.7
2017-04-07T00:24:08.826Z,1035.7
2017-04-07T00:25:08.818Z,1035.7
2017-04-07T00:26:08.810Z,1035.78
2017-04-07T00:27:08.828Z,1035.8
2017-04-07T00:28:08.790Z,1035.78
2017-04-07T00:29:08.781Z,1035.79
2017-04-07T00:30:08.772Z,1035.78
2017-04-07T00:31:08.763Z,1035.83
2017-04-07T00:32:08.753Z,1035.85
2017-04-07T00:33:08.744Z,1035.84
2017-04-07T00:34:08.734Z,1035.84
2017-04-07T00:35:08.725Z,1035.8
2017-04-07T00:36:08.716Z,1035.77
2017-04-07T00:37:08.707Z,1035.81
2017-04-07T00:38:08.697Z,1035.77
2017-04-07T00:39:08.688Z,1035.79
2017-04-07T00:40:08.681Z,1035.81
2017-04-07T00:41:08.669Z,1035.77
2017-04-07T00:42:08.658Z,1035.83
2017-04-07T00:43:08.650Z,1035.81
2017-04-07T00:44:08.641Z,1035.8
2017-04-07T00:45:08.630Z,1035.87
2017-04-07T00:46:08.621Z,1035.82
2017-04-07T00:47:08.612Z,1035.86
2017-04-07T00:48:08.603Z,1035.83
2017-04-07T00:49:08.593Z,1035.8
2017-04-07T00:50:08.583Z,1035.77
2017-04-07T00:51:08.574Z,1035.71
2017-04-07T00:52:08.568Z,1035.73
2017-04-07T00:53:08.554Z,1035.67
2017-04-07T00:54:08.545Z,1035.65
2017-04-07T00:55:08.535Z,1035.59
2017-04-07T00:56:08.525Z,1035.56
2017-04-07T00:57:08.516Z,1035.56
2017-04-07T00:58:08.506Z,1035.51
2017-04-07T00:59:08.498Z,1035.47
2017-04-07T01:00:08.487Z,1035.51
2017-04-07T01:01:08.477Z,1035.48
2017-04-07T01:02:08.469Z,1035.52
2017-04-07T01:03:08.463Z,1035.5
2017-04-07T01:04:08.448Z,1035.51
2017-04-07T01:05:08.739Z,1035.51
2017-04-07T01:06:08.430Z,1035.48
2017-04-07T01:07:08.419Z,1035.52
2017-04-07T01:08:08.410Z,1035.48
2017-04-07T01:09:08.401Z,1035.47
2017-04-07T01:10:08.691Z,1035.41
2017-04-07T01:11:08.380Z,1035.37
2017-04-07T01:12:08.371Z,1035.31
2017-04-07T01:13:08.361Z,1035.28
2017-04-07T01:14:08.352Z,1035.32
2017-04-07T01:15:08.642Z,1035.34
2017-04-07T01:16:08.332Z,1035.33
2017-04-07T01:17:08.323Z,1035.33
2017-04-07T01:18:08.312Z,1035.29
2017-04-07T01:19:08.303Z,1035.24
2017-04-07T01:20:08.543Z,1035.27
2017-04-07T01:21:08.284Z,1035.3
2017-04-07T01:22:08.274Z,1035.28
2017-04-07T01:23:08.264Z,1035.26
2017-04-07T01:24:08.254Z,1035.28
2017-04-07T01:25:08.496Z,1035.26
2017-04-07T01:26:08.233Z,1035.27
2017-04-07T01:27:08.225Z,1035.24
2017-04-07T01:28:08.215Z,1035.21
2017-04-07T01:29:08.205Z,1035.21
2017-04-07T01:30:08.445Z,1035.18
2017-04-07T01:31:08.186Z,1035.2
2017-04-07T01:32:08.177Z,1035.18
2017-04-07T01:33:08.166Z,1035.15
2017-04-07T01:34:08.156Z,1035.15
2017-04-07T01:35:08.497Z,1035.12
2017-04-07T01:36:08.137Z,1035.12
2017-04-07T01:37:08.127Z,1035.06
2017-04-07T01:38:08.117Z,1035.08
2017-04-07T01:39:08.108Z,1035.04
2017-04-07T01:40:08.098Z,1035.02
2017-04-07T01:41:08.088Z,1035.01
2017-04-07T01:42:08.078Z,1034.97
2017-04-07T01:43:08.069Z,1034.94
2017-04-07T01:44:08.058Z,1034.88
2017-04-07T01:45:08.048Z,1034.92
2017-04-07T01:46:08.040Z,1034.89
2017-04-07T01:47:08.030Z,1034.84
2017-04-07T01:48:08.020Z,1034.87
2017-04-07T01:49:08.019Z,1034.88
2017-04-07T01:50:08.001Z,1034.81
2017-04-07T01:51:07.990Z,1034.85
2017-04-07T01:52:07.981Z,1034.89
2017-04-07T01:53:07.972Z,1034.75
2017-04-07T01:54:07.962Z,1034.89
2017-04-07T01:55:07.951Z,1034.9
2017-04-07T01:56:07.942Z,1034.93
2017-04-07T01:57:07.933Z,1034.93
2017-04-07T01:58:07.922Z,1034.95
2017-04-07T01:59:07.912Z,1034.93
2017-04-07T02:00:07.903Z,1034.91
2017-04-07T02:01:07.893Z,1034.97
2017-04-07T02:02:07.883Z,1034.9
2017-04-07T02:03:07.873Z,1034.9
2017-04-07T02:04:07.864Z,1034.86
2017-04-07T02:05:07.855Z,1034.83
2017-04-07T02:06:07.843Z,1034.8
2017-04-07T02:07:07.834Z,1034.79
2017-04-07T02:08:07.824Z,1034.74
2017-04-07T02:09:07.814Z,1034.69
2017-04-07T02:10:07.804Z,1034.58
2017-04-07T02:11:07.795Z,1034.7
2017-04-07T02:12:07.786Z,1034.65
2017-04-07T02:13:07.775Z,1034.61
2017-04-07T02:14:07.765Z,1034.64
2017-04-07T02:15:07.755Z,1034.56
2017-04-07T02:16:07.746Z,1034.55
2017-04-07T02:17:07.736Z,1034.48
2017-04-07T02:18:07.726Z,1034.49
2017-04-07T02:19:07.717Z,1034.46
2017-04-07T02:20:07.706Z,1034.39
2017-04-07T02:21:07.697Z,1034.42
2017-04-07T02:22:07.687Z,1034.4
2017-04-07T02:23:07.678Z,1034.37
2017-04-07T02:24:07.667Z,1034.33
2017-04-07T02:25:07.658Z,1034.31
2017-04-07T02:26:07.648Z,1034.27
2017-04-07T02:27:07.639Z,1034.27
2017-04-07T02:28:07.628Z,1034.19
2017-04-07T02:29:07.619Z,1034.19
2017-04-07T02:30:07.610Z,1034.17
2017-04-07T02:31:07.599Z,1034.18
2017-04-07T02:32:07.590Z,1034.14
2017-04-07T02:33:07.590Z,1034.18
2017-04-07T02:34:07.571Z,1034.11
2017-04-07T02:35:07.560Z,1034.12
2017-04-07T02:36:07.552Z,1034.1
2017-04-07T02:37:07.542Z,1034.05
2017-04-07T02:38:07.532Z,1034.11
2017-04-07T02:39:07.521Z,1034.15
2017-04-07T02:40:07.512Z,1034.13
2017-04-07T02:41:07.503Z,1034.14
2017-04-07T02:42:07.492Z,1034.05
2017-04-07T02:43:07.483Z,1034.08
2017-04-07T02:44:07.473Z,1034.05
2017-04-07T02:45:07.464Z,1034.06
2017-04-07T02:46:07.453Z,1034.02
2017-04-07T02:47:07.444Z,1033.97
2017-04-07T02:48:07.436Z,1034
2017-04-07T02:49:07.425Z,1033.98
2017-04-07T02:50:07.415Z,1034.04
2017-04-07T02:51:07.406Z,1033.96
2017-04-07T02:52:07.397Z,1034
2017-04-07T02:53:07.386Z,1033.96
2017-04-07T02:54:07.375Z,1034.01
2017-04-07T02:55:07.368Z,1034.01
2017-04-07T02:56:07.357Z,1034.01
2017-04-07T02:57:07.347Z,1034.02
2017-04-07T02:58:07.338Z,1033.99
2017-04-07T02:59:07.328Z,1033.96
2017-04-07T03:00:07.319Z,1034
2017-04-07T03:01:07.309Z,1033.92
2017-04-07T03:02:07.298Z,1033.99
2017-04-07T03:03:07.289Z,1033.96
2017-04-07T03:04:07.279Z,1033.94
2017-04-07T03:05:07.270Z,1033.93
2017-04-07T03:06:07.263Z,1033.9
2017-04-07T03:07:07.251Z,1033.95
2017-04-07T03:08:07.241Z,1033.95
2017-04-07T03:09:07.231Z,1034.02
2017-04-07T03:10:07.222Z,1033.95
2017-04-07T03:11:07.213Z,1034.01
2017-04-07T03:12:07.203Z,1033.92
2017-04-07T03:13:07.193Z,1033.91
2017-04-07T03:14:07.184Z,1033.97
2017-04-07T03:15:07.173Z,1033.99
2017-04-07T03:16:07.164Z,1034.04
2017-04-07T03:17:07.154Z,1033.95
2017-04-07T03:18:07.145Z,1034.03
2017-04-07T03:19:07.135Z,1034
2017-04-07T03:20:07.125Z,1034.05
2017-04-07T03:21:07.116Z,1034.08
2017-04-07T03:22:07.107Z,1034.05
2017-04-07T03:23:07.097Z,1034.12
2017-04-07T03:24:07.088Z,1034.09
2017-04-07T03:25:07.079Z,1034.04
2017-04-07T03:26:07.069Z,1034.05
2017-04-07T03:27:07.059Z,1033.99
2017-04-07T03:28:07.049Z,1033.96
2017-04-07T03:29:07.040Z,1033.94
2017-04-07T03:30:07.033Z,1033.95
2017-04-07T03:31:07.020Z,1033.88
2017-04-07T03:32:07.011Z,1033.92
2017-04-07T03:33:07.000Z,1033.87
2017-04-07T03:34:06.993Z,1033.85
2017-04-07T03:35:06.981Z,1033.88
2017-04-07T03:36:06.973Z,1033.92
2017-04-07T03:37:06.961Z,1033.89
2017-04-07T03:38:06.952Z,1033.84
2017-04-07T03:39:06.942Z,1033.8
2017-04-07T03:40:06.933Z,1033.84
2017-04-07T03:41:06.923Z,1033.85
2017-04-07T03:42:06.913Z,1033.92
2017-04-07T03:43:06.903Z,1033.85
2017-04-07T03:44:06.892Z,1033.82
2017-04-07T03:45:06.883Z,1033.81
2017-04-07T03:46:06.874Z,1033.83
2017-04-07T03:47:06.864Z,1033.82
2017-04-07T03:48:06.854Z,1033.78
2017-04-07T03:49:06.844Z,1033.71
2017-04-07T03:50:06.833Z,1033.62
2017-04-07T03:51:07.125Z,1033.65
2017-04-07T03:52:06.815Z,1033.5
2017-04-07T03:53:06.805Z,1033.52
2017-04-07T03:54:06.795Z,1033.46
2017-04-07T03:55:06.785Z,1033.48
2017-04-07T03:56:06.775Z,1033.48
2017-04-07T03:57:06.766Z,1033.42
2017-04-07T03:58:06.756Z,1033.38
2017-04-07T03:59:06.746Z,1033.41
2017-04-07T04:00:06.736Z,1033.27
2017-04-07T04:01:06.727Z,1033.25
2017-04-07T04:02:06.718Z,1033.24
2017-04-07T04:03:06.707Z,1033.25
2017-04-07T04:04:06.697Z,1033.21
2017-04-07T04:05:06.688Z,1033.19
2017-04-07T04:06:06.677Z,1033.14
2017-04-07T04:07:06.669Z,1033.11
2017-04-07T04:08:06.658Z,1033.04
2017-04-07T04:09:06.650Z,1033.04
2017-04-07T04:10:06.638Z,1033
2017-04-07T04:11:06.629Z,1032.91
2017-04-07T04:12:06.619Z,1032.92
2017-04-07T04:13:06.610Z,1032.91
2017-04-07T04:14:06.600Z,1032.89
2017-04-07T04:15:06.591Z,1032.91
2017-04-07T04:16:06.581Z,1032.91
2017-04-07T04:17:06.570Z,1032.92
2017-04-07T04:18:06.562Z,1032.89
2017-04-07T04:19:06.552Z,1032.91
2017-04-07T04:20:06.542Z,1032.93
2017-04-07T04:21:06.532Z,1032.94
2017-04-07T04:22:06.523Z,1033
2017-04-07T04:23:06.514Z,1033.01
2017-04-07T04:24:06.504Z,1033.04
2017-04-07T04:25:06.493Z,1033.05
2017-04-07T04:26:06.483Z,1033.07
2017-04-07T04:27:06.475Z,1033.11
2017-04-07T04:28:06.465Z,1033.12
2017-04-07T04:29:06.455Z,1033.16
2017-04-07T04:30:06.446Z,1033.12
2017-04-07T04:31:06.437Z,1033.12
2017-04-07T04:32:06.427Z,1033.21
2017-04-07T04:33:06.417Z,1033.21
2017-04-07T04:34:06.407Z,1033.27
2017-04-07T04:35:06.399Z,1033.25
2017-04-07T04:36:06.388Z,1033.23
2017-04-07T04:37:06.378Z,1033.25
2017-04-07T04:38:06.370Z,1033.29
2017-04-07T04:39:06.359Z,1033.33
2017-04-07T04:40:06.351Z,1033.41
2017-04-07T04:41:06.343Z,1033.47
2017-04-07T04:42:06.331Z,1033.47
2017-04-07T04:43:06.322Z,1033.48
2017-04-07T04:44:06.312Z,1033.45
2017-04-07T04:45:06.303Z,1033.48
2017-04-07T04:46:06.293Z,1033.46
2017-04-07T04:47:06.282Z,1033.42
2017-04-07T04:48:06.273Z,1033.34
2017-04-07T04:49:06.264Z,1033.39
2017-04-07T04:50:06.253Z,1033.38
2017-04-07T04:51:06.244Z,1033.38
2017-04-07T04:52:06.235Z,1033.3
2017-04-07T04:53:06.226Z,1033.32
2017-04-07T04:54:06.215Z,1033.29
2017-04-07T04:55:06.206Z,1033.23
2017-04-07T04:56:06.196Z,1033.25
2017-04-07T04:57:06.187Z,1033.26
2017-04-07T04:58:06.178Z,1033.22
2017-04-07T04:59:06.168Z,1033.18
2017-04-07T05:00:06.160Z,1033.12
2017-04-07T05:01:06.149Z,1033.13
2017-04-07T05:02:06.140Z,1033.15
2017-04-07T05:03:06.130Z,1033.11
2017-04-07T05:04:06.120Z,1033.08
2017-04-07T05:05:06.110Z,1033.03
2017-04-07T05:06:06.101Z,1033.13
2017-04-07T05:07:06.342Z,1033.14
2017-04-07T05:08:06.081Z,1033.05
2017-04-07T05:09:06.073Z,1033.01
2017-04-07T05:10:06.062Z,1033.05
2017-04-07T05:11:06.055Z,1032.98
2017-04-07T05:12:06.044Z,1032.93
2017-04-07T05:13:06.035Z,1032.89
2017-04-07T05:14:06.025Z,1032.9
2017-04-07T05:15:06.017Z,1032.87
2017-04-07T05:16:06.006Z,1032.88
2017-04-07T05:17:05.996Z,1032.9
2017-04-07T05:18:05.987Z,1032.89
2017-04-07T05:19:05.977Z,1032.86
2017-04-07T05:20:05.968Z,1032.85
2017-04-07T05:21:05.959Z,1032.78
2017-04-07T05:22:05.950Z,1032.79
2017-04-07T05:23:05.939Z,1032.78
2017-04-07T05:24:05.930Z,1032.73
2017-04-07T05:25:05.921Z,1032.76
2017-04-07T05:26:05.913Z,1032.74
2017-04-07T05:27:05.902Z,1032.73
2017-04-07T05:28:05.893Z,1032.75
2017-04-07T05:29:05.883Z,1032.63
2017-04-07T05:30:05.874Z,1032.68
2017-04-07T05:31:05.865Z,1032.67
2017-04-07T05:32:05.856Z,1032.59
2017-04-07T05:33:05.847Z,1032.62
2017-04-07T05:34:05.837Z,1032.57
2017-04-07T05:35:05.828Z,1032.62
2017-04-07T05:36:05.819Z,1032.59
2017-04-07T05:37:05.810Z,1032.58
2017-04-07T05:38:05.800Z,1032.6
2017-04-07T05:39:05.791Z,1032.59
2017-04-07T05:40:05.782Z,1032.56
2017-04-07T05:41:05.772Z,1032.64
2017-04-07T05:42:05.763Z,1032.72
2017-04-07T05:43:05.754Z,1032.71
2017-04-07T05:44:05.745Z,1032.76
2017-04-07T05:45:05.735Z,1032.76
2017-04-07T05:46:05.725Z,1032.74
2017-04-07T05:47:05.717Z,1032.68
2017-04-07T05:48:05.708Z,1032.72
2017-04-07T05:49:05.698Z,1032.71
2017-04-07T05:50:05.691Z,1032.7
2017-04-07T05:51:05.681Z,1032.77
2017-04-07T05:52:05.674Z,1032.69
2017-04-07T05:53:05.661Z,1032.79
2017-04-07T05:54:05.651Z,1032.68
2017-04-07T05:55:05.644Z,1032.76
2017-04-07T05:56:05.634Z,1032.74
2017-04-07T05:57:05.625Z,1032.81
2017-04-07T05:58:05.616Z,1032.88
2017-04-07T05:59:05.607Z,1032.83
2017-04-07T06:00:05.597Z,1032.86
2017-04-07T06:01:05.588Z,1032.91
2017-04-07T06:02:05.578Z,1032.91
2017-04-07T06:03:05.569Z,1032.89
2017-04-07T06:04:05.561Z,1032.88
2017-04-07T06:05:05.551Z,1032.9
2017-04-07T06:06:05.543Z,1032.83
2017-04-07T06:07:05.534Z,1032.82
2017-04-07T06:08:05.524Z,1032.83
2017-04-07T06:09:05.514Z,1032.8
2017-04-07T06:10:05.506Z,1032.86
2017-04-07T06:11:05.496Z,1032.82
2017-04-07T06:12:05.488Z,1032.85
2017-04-07T06:13:05.481Z,1032.78
2017-04-07T06:14:05.468Z,1032.77
2017-04-07T06:15:05.459Z,1032.84
2017-04-07T06:16:05.451Z,1032.82
2017-04-07T06:17:05.442Z,1032.87
2017-04-07T06:18:05.682Z,1032.91
2017-04-07T06:19:05.424Z,1032.83
2017-04-07T06:20:05.414Z,1032.84
2017-04-07T06:21:05.406Z,1032.88
2017-04-07T06:22:05.397Z,1032.89
2017-04-07T06:23:05.637Z,1032.93
2017-04-07T06:24:05.378Z,1033
2017-04-07T06:25:05.369Z,1033.01
2017-04-07T06:26:05.360Z,1032.95
2017-04-07T06:27:05.351Z,1033.02
2017-04-07T06:28:05.643Z,1032.98
2017-04-07T06:29:05.333Z,1032.96
2017-04-07T06:30:05.324Z,1032.95
2017-04-07T06:31:05.316Z,1033.03
2017-04-07T06:32:05.306Z,1032.98
2017-04-07T06:33:05.548Z,1032.93
2017-04-07T06:34:05.289Z,1032.92
2017-04-07T06:35:05.280Z,1032.96
2017-04-07T06:36:05.271Z,1032.96
2017-04-07T06:37:05.263Z,1032.97
2017-04-07T06:38:05.604Z,1032.96
2017-04-07T06:39:05.244Z,1032.94
2017-04-07T06:40:05.234Z,1032.85
2017-04-07T06:41:05.226Z,1032.9
2017-04-07T06:42:05.217Z,1032.85
2017-04-07T06:43:05.507Z,1032.85
2017-04-07T06:44:05.198Z,1032.85
2017-04-07T06:45:05.190Z,1032.92
2017-04-07T06:46:05.181Z,1032.8
2017-04-07T06:47:05.172Z,1032.71
2017-04-07T06:48:05.413Z,1032.68
2017-04-07T06:49:05.154Z,1032.72
2017-04-07T06:50:05.145Z,1032.77
2017-04-07T06:51:05.136Z,1032.75
2017-04-07T06:52:05.127Z,1032.8
2017-04-07T06:53:05.118Z,1032.85
2017-04-07T06:54:05.108Z,1032.81
2017-04-07T06:55:05.099Z,1032.78
2017-04-07T06:56:05.090Z,1032.79
2017-04-07T06:57:05.082Z,1032.82
2017-04-07T06:58:05.072Z,1032.74
2017-04-07T06:59:05.063Z,1032.76
2017-04-07T07:00:05.055Z,1032.77
2017-04-07T07:01:05.046Z,1032.77
2017-04-07T07:02:05.035Z,1032.74
2017-04-07T07:03:05.028Z,1032.78
2017-04-07T07:04:05.019Z,1032.72
2017-04-07T07:05:05.009Z,1032.68
2017-04-07T07:06:05.001Z,1032.71
2017-04-07T07:07:04.991Z,1032.68
2017-04-07T07:08:04.983Z,1032.67
2017-04-07T07:09:04.974Z,1032.63
2017-04-07T07:10:04.964Z,1032.59
2017-04-07T07:11:04.955Z,1032.52
2017-04-07T07:12:04.947Z,1032.55
2017-04-07T07:13:04.937Z,1032.58
2017-04-07T07:14:04.927Z,1032.63
2017-04-07T07:15:04.919Z,1032.59
2017-04-07T07:16:04.909Z,1032.54
2017-04-07T07:17:04.901Z,1032.56
2017-04-07T07:18:04.896Z,1032.54
2017-04-07T07:19:04.883Z,1032.49
2017-04-07T07:20:04.873Z,1032.57
2017-04-07T07:21:04.865Z,1032.49
2017-04-07T07:22:04.856Z,1032.51
2017-04-07T07:23:04.848Z,1032.52
2017-04-07T07:24:04.838Z,1032.49
2017-04-07T07:25:04.829Z,1032.45
2017-04-07T07:26:04.820Z,1032.4
2017-04-07T07:27:04.812Z,1032.45
2017-04-07T07:28:04.801Z,1032.43
2017-04-07T07:29:04.793Z,1032.44
2017-04-07T07:30:04.785Z,1032.4
2017-04-07T07:31:04.775Z,1032.38
2017-04-07T07:32:04.767Z,1032.34
2017-04-07T07:33:04.758Z,1032.42
2017-04-07T07:34:04.750Z,1032.34
2017-04-07T07:35:04.739Z,1032.36
2017-04-07T07:36:04.732Z,1032.39
2017-04-07T07:37:04.722Z,1032.35
2017-04-07T07:38:04.713Z,1032.28
2017-04-07T07:39:04.704Z,1032.28
2017-04-07T07:40:04.695Z,1032.25
2017-04-07T07:41:04.686Z,1032.21
2017-04-07T07:42:04.678Z,1032.19
2017-04-07T07:43:04.668Z,1032.25
2017-04-07T07:44:04.661Z,1032.23
2017-04-07T07:45:04.652Z,1032.23
2017-04-07T07:46:04.642Z,1032.21
2017-04-07T07:47:04.637Z,1032.11
2017-04-07T07:48:04.625Z,1032.11
2017-04-07T07:49:04.617Z,1032.07
2017-04-07T07:50:04.611Z,1032.04
2017-04-07T07:51:04.599Z,1032.01
2017-04-07T07:52:04.594Z,1031.95
2017-04-07T07:53:04.581Z,1032.01
2017-04-07T07:54:04.572Z,1031.93
2017-04-07T07:55:04.564Z,1031.96
2017-04-07T07:56:04.556Z,1031.93
2017-04-07T07:57:04.546Z,1031.94
2017-04-07T07:58:04.538Z,1031.95
2017-04-07T07:59:04.530Z,1031.92
2017-04-07T08:00:04.521Z,1031.97
2017-04-07T08:01:04.512Z,1031.97
2017-04-07T08:02:04.504Z,1031.91
2017-04-07T08:03:04.502Z,1031.93
2017-04-07T08:04:04.489Z,1031.83
2017-04-07T08:05:04.478Z,1031.92
2017-04-07T08:06:04.484Z,1031.81
2017-04-07T08:07:04.463Z,1031.83
2017-04-07T08:08:04.454Z,1031.83
2017-04-07T08:09:04.447Z,1031.85
2017-04-07T08:10:04.437Z,1031.79
2017-04-07T08:11:04.428Z,1031.79
2017-04-07T08:12:04.420Z,1031.8
2017-04-07T08:13:04.412Z,1031.74
2017-04-07T08:14:04.404Z,1031.7
2017-04-07T08:15:04.395Z,1031.72
2017-04-07T08:16:04.387Z,1031.66
2017-04-07T08:17:04.379Z,1031.63
2017-04-07T08:18:04.370Z,1031.61
2017-04-07T08:19:04.362Z,1031.6
2017-04-07T08:20:04.354Z,1031.62
2017-04-07T08:21:04.346Z,1031.57
2017-04-07T08:22:04.337Z,1031.56
2017-04-07T08:23:04.329Z,1031.62
2017-04-07T08:24:04.321Z,1031.6
2017-04-07T08:25:04.313Z,1031.55
2017-04-07T08:26:04.304Z,1031.58
2017-04-07T08:27:04.297Z,1031.53
2017-04-07T08:28:04.290Z,1031.5
2017-04-07T08:29:04.280Z,1031.45
2017-04-07T08:30:04.272Z,1031.42
2017-04-07T08:31:04.267Z,1031.5
2017-04-07T08:32:04.258Z,1031.47
2017-04-07T08:33:04.248Z,1031.51
2017-04-07T08:34:04.242Z,1031.52
2017-04-07T08:35:04.234Z,1031.54
2017-04-07T08:36:04.225Z,1031.46
2017-04-07T08:37:04.217Z,1031.56
2017-04-07T08:38:04.210Z,1031.51
2017-04-07T08:39:04.203Z,1031.5
2017-04-07T08:40:04.195Z,1031.49
2017-04-07T08:41:04.186Z,1031.47
2017-04-07T08:42:04.179Z,1031.42
2017-04-07T08:43:04.171Z,1031.42
2017-04-07T08:44:04.163Z,1031.39
2017-04-07T08:45:04.155Z,1031.3
2017-04-07T08:46:04.148Z,1031.36
2017-04-07T08:47:04.141Z,1031.37
2017-04-07T08:48:04.132Z,1031.36
2017-04-07T08:49:04.125Z,1031.37
2017-04-07T08:50:04.118Z,1031.25
2017-04-07T08:51:04.110Z,1031.29
2017-04-07T08:52:04.104Z,1031.22
2017-04-07T08:53:04.095Z,1031.24
2017-04-07T08:54:04.088Z,1031.31
2017-04-07T08:55:04.092Z,1031.31
2017-04-07T08:56:04.073Z,1031.33
2017-04-07T08:57:04.065Z,1031.27
2017-04-07T08:58:04.058Z,1031.28
2017-04-07T08:59:04.050Z,1031.26
2017-04-07T09:00:04.043Z,1031.22
2017-04-07T09:01:04.036Z,1031.01
2017-04-07T09:02:04.028Z,1030.96
2017-04-07T09:03:04.021Z,1030.99
2017-04-07T09:04:04.014Z,1030.93
2017-04-07T09:05:04.007Z,1030.94
2017-04-07T09:06:03.998Z,1030.93
2017-04-07T09:07:03.992Z,1030.95
2017-04-07T09:08:03.986Z,1030.96
2017-04-07T09:09:03.978Z,1030.78
2017-04-07T09:10:03.970Z,1030.79
2017-04-07T09:11:03.966Z,1030.69
2017-04-07T09:12:03.957Z,1030.73
2017-04-07T09:13:03.949Z,1030.66
2017-04-07T09:14:03.942Z,1030.69
2017-04-07T09:15:03.937Z,1030.65
2017-04-07T09:16:03.929Z,1030.61
2017-04-07T09:17:03.922Z,1030.63
2017-04-07T09:18:03.916Z,1030.71
2017-04-07T09:19:03.909Z,1030.75
2017-04-07T09:20:03.902Z,1030.71
2017-04-07T09:21:03.894Z,1030.74
2017-04-07T09:22:03.888Z,1030.74
2017-04-07T09:23:03.881Z,1030.77
2017-04-07T09:24:03.874Z,1030.7
2017-04-07T09:25:03.867Z,1030.7
2017-04-07T09:26:03.861Z,1030.73
2017-04-07T09:27:03.855Z,1030.72
2017-04-07T09:28:03.847Z,1030.73
2017-04-07T09:29:03.841Z,1030.83
2017-04-07T09:30:03.834Z,1030.85
2017-04-07T09:31:03.828Z,1030.86
2017-04-07T09:32:03.821Z,1030.86
2017-04-07T09:33:03.814Z,1030.79
2017-04-07T09:34:03.807Z,1030.84
2017-04-07T09:35:03.800Z,1030.75
2017-04-07T09:36:03.794Z,1030.81
2017-04-07T09:37:03.787Z,1030.82
2017-04-07T09:38:03.781Z,1030.84
2017-04-07T09:39:03.775Z,1030.81
2017-04-07T09:40:03.767Z,1030.85
2017-04-07T09:41:03.760Z,1030.85
2017-04-07T09:42:03.755Z,1030.9
2017-04-07T09:43:03.747Z,1030.95
2017-04-07T09:44:03.741Z,1030.87
2017-04-07T09:45:03.735Z,1030.97
2017-04-07T09:46:03.727Z,1030.93
2017-04-07T09:47:03.721Z,1030.95
2017-04-07T09:48:03.714Z,1030.91
2017-04-07T09:49:03.707Z,1030.92
2017-04-07T09:50:03.699Z,1030.96
2017-04-07T09:51:03.694Z,1030.9
2017-04-07T09:52:03.687Z,1030.9
2017-04-07T09:53:03.682Z,1030.89
2017-04-07T09:54:03.673Z,1030.94
2017-04-07T09:55:03.670Z,1030.97
2017-04-07T09:56:03.660Z,1030.89
2017-04-07T09:57:03.652Z,1030.86
2017-04-07T09:58:03.646Z,1030.81
2017-04-07T09:59:03.639Z,1030.92
2017-04-07T10:00:03.633Z,1030.76
2017-04-07T10:01:03.625Z,1030.87
2017-04-07T10:02:03.618Z,1030.83
2017-04-07T10:03:03.612Z,1030.84
2017-04-07T10:04:03.906Z,1030.78
2017-04-07T10:05:03.598Z,1030.77
2017-04-07T10:06:03.593Z,1030.61
2017-04-07T10:07:03.587Z,1030.62
2017-04-07T10:08:03.578Z,1030.62
2017-04-07T10:09:03.826Z,1030.6
2017-04-07T10:10:03.565Z,1030.54
2017-04-07T10:11:03.558Z,1030.55
2017-04-07T10:12:03.551Z,1030.48
2017-04-07T10:13:03.545Z,1030.5
2017-04-07T10:14:03.789Z,1030.44
2017-04-07T10:15:03.532Z,1030.39
2017-04-07T10:16:03.526Z,1030.46
2017-04-07T10:17:03.519Z,1030.4
2017-04-07T10:18:03.513Z,1030.42
2017-04-07T10:19:03.756Z,1030.44
2017-04-07T10:20:03.500Z,1030.54
2017-04-07T10:21:03.493Z,1030.45
2017-04-07T10:22:03.487Z,1030.39
2017-04-07T10:23:03.481Z,1030.52
2017-04-07T10:24:03.724Z,1030.56
2017-04-07T10:25:03.468Z,1030.61
2017-04-07T10:26:03.461Z,1030.53
2017-04-07T10:27:03.455Z,1030.53
2017-04-07T10:28:03.449Z,1030.5
2017-04-07T10:29:03.743Z,1030.46
2017-04-07T10:30:03.436Z,1030.4
2017-04-07T10:31:03.429Z,1030.39
2017-04-07T10:32:03.424Z,1030.2
2017-04-07T10:33:03.418Z,1030.2
2017-04-07T10:34:03.661Z,1030.18
2017-04-07T10:35:03.404Z,1030.1
2017-04-07T10:36:03.399Z,1030.09
2017-04-07T10:37:03.392Z,1029.95
2017-04-07T10:38:03.386Z,1029.92
2017-04-07T10:39:03.682Z,1029.9
2017-04-07T10:40:03.374Z,1029.77
2017-04-07T10:41:03.369Z,1029.81
2017-04-07T10:42:03.362Z,1029.75
2017-04-07T10:43:03.357Z,1029.69
2017-04-07T10:44:03.651Z,1029.67
2017-04-07T10:45:03.345Z,1029.75
2017-04-07T10:46:03.339Z,1029.72
2017-04-07T10:47:03.333Z,1029.71
2017-04-07T10:48:03.341Z,1029.8
2017-04-07T10:49:03.622Z,1029.7
2017-04-07T10:50:03.316Z,1029.69
2017-04-07T10:51:03.310Z,1029.56
2017-04-07T10:52:03.304Z,1029.56
2017-04-07T10:53:03.299Z,1029.56
2017-04-07T10:54:03.543Z,1029.55
2017-04-07T10:55:03.288Z,1029.54
2017-04-07T10:56:03.283Z,1029.55
2017-04-07T10:57:03.292Z,1029.57
2017-04-07T10:58:03.287Z,1029.4
2017-04-07T10:59:03.565Z,1029.34
2017-04-07T11:00:03.259Z,1029.27
2017-04-07T11:01:03.255Z,1029.25
2017-04-07T11:02:03.251Z,1029.24
2017-04-07T11:03:03.243Z,1029.23
2017-04-07T11:04:03.489Z,1029.13
2017-04-07T11:05:03.233Z,1029.07
2017-04-07T11:06:03.242Z,1029
2017-04-07T11:07:03.223Z,1028.93
2017-04-07T11:08:03.219Z,1028.9
2017-04-07T11:09:03.463Z,1028.92
2017-04-07T11:10:03.207Z,1028.92
2017-04-07T11:11:03.202Z,1028.82
2017-04-07T11:12:03.198Z,1028.86
2017-04-07T11:13:03.198Z,1028.85
2017-04-07T11:14:03.488Z,1028.96
2017-04-07T11:15:03.183Z,1029.03
2017-04-07T11:16:03.179Z,1029.03
2017-04-07T11:17:03.174Z,1029.09
2017-04-07T11:18:03.170Z,1029.01
2017-04-07T11:19:03.416Z,1029.18
2017-04-07T11:20:03.160Z,1029.19
2017-04-07T11:21:03.164Z,1029.23
2017-04-07T11:22:03.151Z,1029.18
2017-04-07T11:23:03.145Z,1029.14
2017-04-07T11:24:03.442Z,1029.14
2017-04-07T11:25:03.137Z,1029.07
2017-04-07T11:26:03.131Z,1029.04
2017-04-07T11:27:03.128Z,1029.05
2017-04-07T11:28:03.137Z,1029.09
2017-04-07T11:29:03.468Z,1029.17
2017-04-07T11:30:03.124Z,1029.18
2017-04-07T11:31:03.108Z,1029.2
2017-04-07T11:32:03.102Z,1029.28
2017-04-07T11:33:03.110Z,1029.26
2017-04-07T11:34:03.093Z,1029.41
2017-04-07T11:35:03.101Z,1029.37
2017-04-07T11:36:03.094Z,1029.41
2017-04-07T11:37:03.078Z,1029.41
2017-04-07T11:38:03.074Z,1029.32
2017-04-07T11:39:03.069Z,1029.33
2017-04-07T11:40:03.066Z,1029.38
2017-04-07T11:41:03.060Z,1029.33
2017-04-07T11:42:03.073Z,1029.36
2017-04-07T11:43:03.061Z,1029.42
2017-04-07T11:44:03.059Z,1029.44
2017-04-07T11:45:03.045Z,1029.5
2017-04-07T11:46:03.041Z,1029.46
2017-04-07T11:47:03.036Z,1029.49
2017-04-07T11:48:03.038Z,1029.56
2017-04-07T11:49:03.034Z,1029.53
2017-04-07T11:50:03.029Z,1029.45
2017-04-07T11:51:03.024Z,1029.43
2017-04-07T11:52:03.006Z,1029.44
2017-04-07T11:53:03.002Z,1029.39
2017-04-07T11:54:02.995Z,1029.37
2017-04-07T11:55:02.989Z,1029.39
2017-04-07T11:56:02.987Z,1029.42
2017-04-07T11:57:02.981Z,1029.34
2017-04-07T11:58:02.976Z,1029.28
2017-04-07T11:59:02.971Z,1029.24
2017-04-07T12:00:02.965Z,1029.27
2017-04-07T12:01:02.960Z,1029.31
2017-04-07T12:02:02.955Z,1029.22
2017-04-07T12:03:02.951Z,1029.12
2017-04-07T12:04:02.946Z,1029.08
2017-04-07T12:05:02.940Z,1029.08
2017-04-07T12:06:02.936Z,1029.12
2017-04-07T12:07:02.932Z,1029.21
2017-04-07T12:08:02.927Z,1029.26